createdAt,value
2018-06-20T00:00:52.651Z,19.62
2018-06-20T00:01:52.636Z,19.62
2018-06-20T00:02:52.621Z,19.55
2018-06-20T00:03:52.609Z,19.50
2018-06-20T00:04:52.592Z,19.59
2018-06-20T00:05:52.576Z,19.59
2018-06-20T00:06:52.564Z,19.71
2018-06-20T00:07:52.552Z,19.63
2018-06-20T00:08:52.535Z,19.68
2018-06-20T00:09:52.518Z,19.71
2018-06-20T00:10:52.508Z,19.68
2018-06-20T00:11:52.491Z,19.74
2018-06-20T00:12:52.477Z,19.76
2018-06-20T00:13:52.458Z,19.68
2018-06-20T00:14:52.447Z,19.81
2018-06-20T00:15:52.434Z,19.77
2018-06-20T00:16:52.416Z,19.77
2018-06-20T00:17:52.402Z,19.83
2018-06-20T00:18:52.388Z,19.83
2018-06-20T00:19:52.373Z,19.80
2018-06-20T00:20:52.359Z,19.76
2018-06-20T00:21:52.343Z,19.73
2018-06-20T00:22:52.329Z,19.77
2018-06-20T00:23:52.315Z,19.73
2018-06-20T00:24:52.301Z,19.68
2018-06-20T00:25:52.284Z,19.71
2018-06-20T00:26:52.275Z,19.69
2018-06-20T00:27:52.261Z,19.56
2018-06-20T00:28:52.242Z,19.58
2018-06-20T00:29:52.230Z,19.63
2018-06-20T00:30:52.212Z,19.58
2018-06-20T00:31:52.198Z,19.58
2018-06-20T00:32:52.183Z,19.65
2018-06-20T00:33:52.167Z,19.66
2018-06-20T00:34:52.153Z,19.56
2018-06-20T00:35:52.139Z,19.61
2018-06-20T00:36:52.129Z,19.54
2018-06-20T00:37:52.112Z,19.55
2018-06-20T00:38:52.097Z,19.61
2018-06-20T00:39:52.082Z,19.44
2018-06-20T00:40:52.069Z,19.44
2018-06-20T00:41:52.052Z,19.50
2018-06-20T00:42:52.037Z,19.58
2018-06-20T00:43:52.026Z,19.56
2018-06-20T00:44:52.016Z,19.48
2018-06-20T00:45:51.992Z,19.39
2018-06-20T00:46:51.986Z,19.36
2018-06-20T00:47:52.314Z,19.36
2018-06-20T00:48:51.951Z,19.37
2018-06-20T00:49:51.934Z,19.32
2018-06-20T00:50:51.920Z,19.41
2018-06-20T00:51:51.905Z,19.40
2018-06-20T00:52:51.889Z,19.43
2018-06-20T00:53:51.875Z,19.39
2018-06-20T00:54:51.858Z,19.32
2018-06-20T00:55:51.849Z,19.40
2018-06-20T00:56:51.836Z,19.40
2018-06-20T00:57:51.816Z,19.37
2018-06-20T00:58:51.802Z,19.41
2018-06-20T00:59:51.785Z,19.33
2018-06-20T01:00:51.792Z,19.29
2018-06-20T01:01:51.761Z,19.23
2018-06-20T01:02:51.743Z,19.18
2018-06-20T01:03:51.730Z,19.25
2018-06-20T01:04:51.713Z,19.16
2018-06-20T01:05:51.699Z,19.14
2018-06-20T01:06:51.684Z,19.19
2018-06-20T01:07:51.673Z,19.13
2018-06-20T01:08:51.657Z,19.10
2018-06-20T01:09:51.642Z,19.08
2018-06-20T01:10:51.626Z,19.04
2018-06-20T01:11:51.638Z,18.98
2018-06-20T01:12:51.597Z,19.00
2018-06-20T01:13:51.580Z,19.02
2018-06-20T01:14:51.568Z,18.91
2018-06-20T01:15:51.550Z,18.88
2018-06-20T01:16:51.536Z,18.82
2018-06-20T01:17:51.519Z,18.95
2018-06-20T01:18:51.507Z,18.87
2018-06-20T01:19:51.495Z,18.80
2018-06-20T01:20:51.475Z,18.80
2018-06-20T01:21:51.462Z,18.78
2018-06-20T01:22:51.447Z,18.78
2018-06-20T01:23:51.431Z,18.66
2018-06-20T01:24:51.427Z,18.66
2018-06-20T01:25:51.400Z,18.65
2018-06-20T01:26:51.387Z,18.50
2018-06-20T01:27:51.371Z,18.35
2018-06-20T01:28:51.355Z,18.35
2018-06-20T01:29:51.387Z,18.30
2018-06-20T01:30:51.325Z,18.37
2018-06-20T01:31:51.310Z,18.39
2018-06-20T01:32:51.295Z,18.37
2018-06-20T01:33:51.279Z,18.37
2018-06-20T01:34:51.263Z,18.39
2018-06-20T01:35:51.249Z,18.41
2018-06-20T01:36:51.234Z,18.39
2018-06-20T01:37:51.219Z,18.37
2018-06-20T01:38:51.204Z,18.33
2018-06-20T01:39:51.189Z,18.35
2018-06-20T01:40:51.180Z,18.41
2018-06-20T01:41:51.156Z,18.26
2018-06-20T01:42:51.750Z,18.27
2018-06-20T01:43:51.130Z,18.32
2018-06-20T01:44:51.111Z,18.18
2018-06-20T01:45:51.096Z,18.11
2018-06-20T01:46:51.081Z,18.11
2018-06-20T01:47:51.065Z,18.21
2018-06-20T01:48:51.055Z,18.14
2018-06-20T01:49:51.035Z,18.15
2018-06-20T01:50:51.019Z,18.11
2018-06-20T01:51:51.005Z,18.08
2018-06-20T01:52:50.989Z,18.07
2018-06-20T01:53:50.971Z,18.05
2018-06-20T01:54:50.960Z,18.07
2018-06-20T01:55:50.942Z,18.00
2018-06-20T01:56:50.928Z,18.08
2018-06-20T01:57:50.909Z,18.12
2018-06-20T01:58:50.900Z,17.97
2018-06-20T01:59:50.882Z,17.97
2018-06-20T02:00:50.864Z,18.02
2018-06-20T02:01:50.850Z,17.99
2018-06-20T02:02:50.834Z,17.99
2018-06-20T02:03:50.819Z,18.07
2018-06-20T02:04:50.804Z,18.07
2018-06-20T02:05:50.789Z,17.97
2018-06-20T02:06:50.771Z,17.96
2018-06-20T02:07:50.757Z,17.97
2018-06-20T02:08:50.739Z,17.92
2018-06-20T02:09:50.729Z,17.90
2018-06-20T02:10:50.710Z,17.96
2018-06-20T02:11:50.696Z,17.95
2018-06-20T02:12:50.679Z,17.96
2018-06-20T02:13:50.663Z,18.00
2018-06-20T02:14:50.646Z,17.95
2018-06-20T02:15:50.631Z,17.95
2018-06-20T02:16:50.615Z,17.95
2018-06-20T02:17:50.602Z,17.96
2018-06-20T02:18:50.584Z,17.89
2018-06-20T02:19:50.572Z,17.87
2018-06-20T02:20:50.561Z,17.96
2018-06-20T02:21:50.538Z,17.87
2018-06-20T02:22:50.520Z,17.90
2018-06-20T02:23:50.506Z,17.90
2018-06-20T02:24:50.491Z,18.00
2018-06-20T02:25:50.473Z,18.05
2018-06-20T02:26:50.459Z,17.99
2018-06-20T02:27:50.445Z,18.07
2018-06-20T02:28:50.478Z,18.10
2018-06-20T02:29:50.412Z,18.05
2018-06-20T02:30:50.399Z,18.08
2018-06-20T02:31:50.383Z,18.12
2018-06-20T02:32:50.369Z,18.05
2018-06-20T02:33:50.349Z,18.15
2018-06-20T02:34:50.326Z,18.12
2018-06-20T02:35:50.319Z,18.10
2018-06-20T02:36:50.377Z,18.20
2018-06-20T02:37:50.287Z,18.15
2018-06-20T02:38:50.273Z,18.18
2018-06-20T02:39:50.407Z,18.18
2018-06-20T02:40:50.240Z,18.20
2018-06-20T02:41:50.227Z,18.17
2018-06-20T02:42:50.208Z,18.17
2018-06-20T02:43:50.200Z,18.18
2018-06-20T02:44:50.185Z,18.12
2018-06-20T02:45:50.161Z,18.23
2018-06-20T02:46:50.146Z,18.18
2018-06-20T02:47:50.131Z,18.25
2018-06-20T02:48:50.114Z,18.14
2018-06-20T02:49:50.097Z,18.12
2018-06-20T02:50:50.082Z,18.20
2018-06-20T02:51:50.067Z,18.08
2018-06-20T02:52:50.140Z,17.97
2018-06-20T02:53:50.035Z,17.87
2018-06-20T02:54:50.019Z,17.89
2018-06-20T02:55:50.004Z,17.75
2018-06-20T02:56:49.991Z,17.84
2018-06-20T02:57:49.972Z,17.82
2018-06-20T02:58:49.959Z,17.95
2018-06-20T02:59:49.945Z,17.95
2018-06-20T03:00:49.928Z,17.93
2018-06-20T03:01:49.910Z,17.99
2018-06-20T03:02:49.893Z,18.07
2018-06-20T03:03:49.879Z,18.11
2018-06-20T03:04:49.867Z,18.20
2018-06-20T03:05:49.845Z,18.18
2018-06-20T03:06:49.829Z,18.27
2018-06-20T03:07:49.815Z,18.17
2018-06-20T03:08:49.800Z,18.32
2018-06-20T03:09:49.781Z,18.26
2018-06-20T03:10:49.767Z,18.27
2018-06-20T03:11:49.752Z,18.32
2018-06-20T03:12:49.736Z,18.41
2018-06-20T03:13:49.729Z,18.36
2018-06-20T03:14:49.706Z,18.42
2018-06-20T03:15:49.739Z,18.36
2018-06-20T03:16:49.674Z,18.36
2018-06-20T03:17:49.662Z,18.29
2018-06-20T03:18:49.692Z,18.23
2018-06-20T03:19:49.627Z,18.27
2018-06-20T03:20:49.622Z,18.20
2018-06-20T03:21:49.599Z,18.17
2018-06-20T03:22:49.579Z,18.20
2018-06-20T03:23:49.564Z,18.32
2018-06-20T03:24:49.548Z,18.26
2018-06-20T03:25:49.531Z,18.44
2018-06-20T03:26:49.519Z,18.26
2018-06-20T03:27:49.504Z,18.30
2018-06-20T03:28:49.486Z,18.37
2018-06-20T03:29:49.473Z,18.39
2018-06-20T03:30:49.454Z,18.27
2018-06-20T03:31:49.447Z,18.35
2018-06-20T03:32:49.424Z,18.41
2018-06-20T03:33:49.408Z,18.45
2018-06-20T03:34:49.395Z,18.37
2018-06-20T03:35:49.376Z,18.48
2018-06-20T03:36:49.360Z,18.52
2018-06-20T03:37:49.352Z,18.55
2018-06-20T03:38:49.329Z,18.55
2018-06-20T03:39:49.316Z,18.58
2018-06-20T03:40:49.298Z,18.66
2018-06-20T03:41:49.332Z,18.70
2018-06-20T03:42:49.268Z,18.66
2018-06-20T03:43:49.252Z,18.75
2018-06-20T03:44:49.236Z,18.80
2018-06-20T03:45:49.221Z,18.84
2018-06-20T03:46:49.204Z,18.85
2018-06-20T03:47:49.192Z,18.85
2018-06-20T03:48:49.177Z,18.80
2018-06-20T03:49:49.160Z,18.80
2018-06-20T03:50:49.144Z,19.04
2018-06-20T03:51:49.128Z,18.91
2018-06-20T03:52:49.112Z,18.84
2018-06-20T03:53:49.096Z,18.84
2018-06-20T03:54:49.080Z,18.90
2018-06-20T03:55:49.074Z,18.95
2018-06-20T03:56:49.102Z,18.95
2018-06-20T03:57:49.033Z,18.92
2018-06-20T03:58:49.019Z,18.87
2018-06-20T03:59:49.058Z,18.91
2018-06-20T04:00:48.992Z,18.95
2018-06-20T04:01:48.971Z,18.99
2018-06-20T04:02:48.959Z,19.00
2018-06-20T04:03:48.940Z,19.02
2018-06-20T04:04:48.927Z,18.95
2018-06-20T04:05:48.910Z,18.99
2018-06-20T04:06:48.895Z,18.95
2018-06-20T04:07:48.882Z,18.99
2018-06-20T04:08:48.865Z,19.02
2018-06-20T04:09:48.852Z,19.07
2018-06-20T04:10:48.834Z,19.08
2018-06-20T04:11:48.823Z,19.08
2018-06-20T04:12:48.909Z,19.06
2018-06-20T04:13:48.788Z,19.02
2018-06-20T04:14:48.777Z,19.06
2018-06-20T04:15:48.758Z,19.21
2018-06-20T04:16:48.750Z,19.26
2018-06-20T04:17:48.729Z,19.31
2018-06-20T04:18:48.722Z,19.37
2018-06-20T04:19:48.699Z,19.33
2018-06-20T04:20:48.684Z,19.40
2018-06-20T04:21:48.668Z,19.40
2018-06-20T04:22:48.653Z,19.37
2018-06-20T04:23:48.638Z,19.37
2018-06-20T04:24:48.623Z,19.46
2018-06-20T04:25:48.613Z,19.37
2018-06-20T04:26:48.591Z,19.36
2018-06-20T04:27:48.577Z,19.33
2018-06-20T04:28:48.564Z,19.47
2018-06-20T04:29:48.549Z,19.47
2018-06-20T04:30:48.530Z,19.47
2018-06-20T04:31:48.518Z,19.50
2018-06-20T04:32:48.504Z,19.56
2018-06-20T04:34:31.022Z,19.62
2018-06-20T04:35:31.005Z,19.63
2018-06-20T04:36:30.985Z,19.59
2018-06-20T04:37:30.981Z,19.69
2018-06-20T04:38:30.957Z,19.76
2018-06-20T04:39:30.942Z,19.63
2018-06-20T04:40:30.924Z,19.71
2018-06-20T04:41:30.909Z,19.73
2018-06-20T04:42:30.895Z,19.71
2018-06-20T04:43:30.878Z,19.71
2018-06-20T04:44:30.883Z,19.58
2018-06-20T04:45:30.854Z,19.55
2018-06-20T04:46:30.835Z,19.61
2018-06-20T04:47:30.821Z,19.48
2018-06-20T04:48:30.806Z,19.50
2018-06-20T04:49:30.800Z,19.59
2018-06-20T04:50:30.778Z,19.55
2018-06-20T04:51:30.763Z,19.58
2018-06-20T04:52:30.749Z,19.56
2018-06-20T04:53:30.734Z,19.51
2018-06-20T04:54:30.720Z,19.46
2018-06-20T04:55:30.742Z,19.55
2018-06-20T04:56:30.694Z,19.59
2018-06-20T04:57:30.678Z,19.59
2018-06-20T04:58:30.659Z,19.65
2018-06-20T04:59:30.645Z,19.68
2018-06-20T05:00:30.631Z,19.69
2018-06-20T05:01:30.615Z,19.76
2018-06-20T05:02:30.605Z,19.73
2018-06-20T05:03:30.588Z,19.73
2018-06-20T05:04:30.575Z,19.84
2018-06-20T05:05:30.559Z,19.77
2018-06-20T05:06:30.545Z,19.91
2018-06-20T05:07:30.537Z,19.92
2018-06-20T05:08:30.517Z,19.99
2018-06-20T05:09:30.500Z,19.91
2018-06-20T05:10:30.487Z,20.06
2018-06-20T05:11:30.473Z,20.10
2018-06-20T05:12:30.457Z,20.17
2018-06-20T05:13:30.443Z,20.21
2018-06-20T05:14:30.432Z,20.18
2018-06-20T05:15:30.413Z,20.14
2018-06-20T05:16:30.404Z,20.26
2018-06-20T05:17:30.384Z,20.21
2018-06-20T05:18:30.370Z,20.23
2018-06-20T05:19:30.356Z,20.26
2018-06-20T05:20:30.343Z,20.32
2018-06-20T05:21:30.325Z,20.29
2018-06-20T05:22:30.327Z,20.31
2018-06-20T05:23:30.316Z,20.36
2018-06-20T05:24:30.284Z,20.29
2018-06-20T05:25:30.270Z,20.26
2018-06-20T05:26:30.253Z,20.32
2018-06-20T05:27:30.254Z,20.29
2018-06-20T05:28:30.227Z,20.35
2018-06-20T05:29:30.211Z,20.33
2018-06-20T05:30:30.204Z,20.38
2018-06-20T05:31:30.190Z,20.32
2018-06-20T05:32:30.170Z,20.33
2018-06-20T05:33:30.152Z,20.38
2018-06-20T05:34:30.141Z,20.43
2018-06-20T05:35:30.129Z,20.32
2018-06-20T05:36:30.126Z,20.39
2018-06-20T05:37:30.100Z,20.35
2018-06-20T05:38:30.085Z,20.39
2018-06-20T05:39:30.071Z,20.47
2018-06-20T05:40:30.059Z,20.36
2018-06-20T05:41:30.042Z,20.41
2018-06-20T05:42:30.030Z,20.48
2018-06-20T05:43:30.014Z,20.35
2018-06-20T05:44:29.999Z,20.41
2018-06-20T05:45:29.985Z,20.35
2018-06-20T05:46:29.974Z,20.35
2018-06-20T05:47:29.956Z,20.41
2018-06-20T05:48:29.944Z,20.42
2018-06-20T05:49:29.932Z,20.33
2018-06-20T05:50:29.914Z,20.39
2018-06-20T05:51:29.900Z,20.52
2018-06-20T05:52:29.887Z,20.54
2018-06-20T05:53:29.877Z,20.51
2018-06-20T05:54:29.860Z,20.52
2018-06-20T05:55:29.847Z,20.58
2018-06-20T05:56:29.836Z,20.62
2018-06-20T05:57:29.817Z,20.55
2018-06-20T05:58:29.803Z,20.72
2018-06-20T05:59:29.788Z,20.67
2018-06-20T06:00:29.776Z,20.62
2018-06-20T06:01:29.765Z,20.48
2018-06-20T06:02:29.750Z,20.39
2018-06-20T06:03:29.730Z,20.43
2018-06-20T06:04:29.718Z,20.52
2018-06-20T06:05:29.704Z,20.50
2018-06-20T06:06:29.745Z,20.47
2018-06-20T06:07:29.675Z,20.39
2018-06-20T06:08:29.664Z,20.35
2018-06-20T06:09:29.702Z,20.50
2018-06-20T06:10:29.634Z,20.48
2018-06-20T06:11:29.619Z,20.33
2018-06-20T06:12:29.607Z,20.35
2018-06-20T06:13:29.594Z,20.42
2018-06-20T06:15:29.565Z,20.42
2018-06-20T06:16:29.553Z,20.51
2018-06-20T06:17:29.539Z,20.57
2018-06-20T06:18:29.524Z,20.67
2018-06-20T06:19:29.509Z,20.66
2018-06-20T06:20:29.497Z,20.72
2018-06-20T06:21:29.482Z,20.74
2018-06-20T06:22:29.468Z,20.82
2018-06-20T06:23:29.456Z,20.77
2018-06-20T06:24:29.454Z,20.85
2018-06-20T06:25:29.426Z,20.87
2018-06-20T06:26:29.413Z,20.85
2018-06-20T06:27:29.412Z,20.91
2018-06-20T06:28:29.386Z,20.97
2018-06-20T06:29:29.370Z,20.97
2018-06-20T06:30:29.408Z,20.94
2018-06-20T06:31:29.347Z,20.92
2018-06-20T06:32:29.339Z,20.99
2018-06-20T06:33:29.317Z,20.98
2018-06-20T06:34:29.303Z,20.95
2018-06-20T06:35:29.288Z,21.07
2018-06-20T06:36:29.275Z,21.09
2018-06-20T06:37:29.263Z,20.95
2018-06-20T06:38:29.248Z,20.99
2018-06-20T06:39:29.235Z,21.03
2018-06-20T06:40:29.222Z,20.92
2018-06-20T06:41:29.205Z,20.92
2018-06-20T06:42:29.194Z,20.98
2018-06-20T06:43:29.181Z,20.88
2018-06-20T06:44:29.171Z,20.97
2018-06-20T06:45:29.161Z,20.95
2018-06-20T06:46:29.140Z,20.92
2018-06-20T06:47:29.127Z,20.94
2018-06-20T06:48:29.112Z,20.92
2018-06-20T06:49:29.144Z,21.12
2018-06-20T06:50:29.089Z,21.07
2018-06-20T06:51:29.073Z,21.13
2018-06-20T06:52:29.057Z,21.10
2018-06-20T06:53:29.046Z,21.16
2018-06-20T06:54:29.032Z,21.13
2018-06-20T06:55:29.021Z,21.07
2018-06-20T06:56:29.006Z,21.12
2018-06-20T06:57:29.003Z,21.21
2018-06-20T06:58:28.977Z,21.28
2018-06-20T06:59:28.964Z,21.42
2018-06-20T07:00:28.953Z,21.61
2018-06-20T07:01:28.937Z,21.65
2018-06-20T07:02:28.925Z,21.71
2018-06-20T07:03:28.911Z,21.84
2018-06-20T07:04:28.899Z,21.84
2018-06-20T07:05:28.886Z,21.88
2018-06-20T07:06:28.872Z,21.92
2018-06-20T07:07:28.859Z,22.09
2018-06-20T07:08:28.847Z,22.14
2018-06-20T07:09:28.832Z,22.12
2018-06-20T07:10:28.822Z,22.18
2018-06-20T07:11:28.806Z,22.07
2018-06-20T07:12:28.793Z,22.15
2018-06-20T07:13:28.780Z,22.21
2018-06-20T07:14:28.767Z,22.21
2018-06-20T07:15:28.780Z,22.24
2018-06-20T07:16:28.745Z,22.33
2018-06-20T07:17:28.729Z,22.35
2018-06-20T07:18:28.718Z,22.30
2018-06-20T07:19:28.706Z,22.42
2018-06-20T07:20:28.692Z,22.46
2018-06-20T07:21:28.679Z,22.52
2018-06-20T07:22:28.669Z,22.47
2018-06-20T07:23:28.656Z,22.43
2018-06-20T07:24:28.661Z,22.49
2018-06-20T07:25:28.629Z,22.62
2018-06-20T07:26:28.616Z,22.57
2018-06-20T07:27:28.608Z,22.64
2018-06-20T07:28:28.596Z,22.57
2018-06-20T07:29:28.587Z,22.67
2018-06-20T07:30:28.567Z,22.77
2018-06-20T07:31:28.558Z,22.77
2018-06-20T07:32:28.544Z,22.88
2018-06-20T07:33:28.558Z,22.77
2018-06-20T07:34:28.528Z,22.86
2018-06-20T07:35:28.532Z,22.94
2018-06-20T07:36:28.495Z,23.04
2018-06-20T07:37:28.483Z,23.02
2018-06-20T07:38:28.470Z,23.19
2018-06-20T07:39:28.457Z,23.32
2018-06-20T07:40:28.446Z,23.32
2018-06-20T07:41:28.436Z,23.32
2018-06-20T07:42:28.423Z,23.27
2018-06-20T07:43:28.412Z,23.31
2018-06-20T07:44:28.399Z,23.27
2018-06-20T07:45:28.392Z,23.28
2018-06-20T07:46:28.374Z,23.39
2018-06-20T07:47:28.365Z,23.42
2018-06-20T07:48:28.362Z,23.47
2018-06-20T07:49:28.341Z,23.46
2018-06-20T07:50:28.328Z,23.57
2018-06-20T07:51:28.319Z,23.75
2018-06-20T07:52:28.306Z,23.51
2018-06-20T07:53:34.565Z,23.36
2018-06-20T07:54:28.282Z,23.39
2018-06-20T07:55:28.274Z,23.43
2018-06-20T07:56:28.265Z,23.43
2018-06-20T07:57:28.251Z,23.53
2018-06-20T07:58:28.238Z,23.51
2018-06-20T07:59:28.230Z,23.58
2018-06-20T08:00:28.217Z,23.66
2018-06-20T08:01:28.203Z,23.53
2018-06-20T08:02:28.199Z,23.54
2018-06-20T08:03:28.180Z,23.65
2018-06-20T08:04:28.169Z,23.88
2018-06-20T08:05:28.160Z,23.90
2018-06-20T08:06:28.147Z,24.12
2018-06-20T08:07:28.137Z,24.10
2018-06-20T08:08:28.126Z,24.27
2018-06-20T08:09:28.114Z,24.20
2018-06-20T08:10:28.104Z,24.31
2018-06-20T08:11:28.093Z,24.16
2018-06-20T08:12:28.122Z,24.21
2018-06-20T08:13:28.070Z,24.34
2018-06-20T08:14:28.060Z,24.31
2018-06-20T08:15:28.049Z,24.53
2018-06-20T08:16:28.039Z,24.62
2018-06-20T08:17:28.028Z,24.85
2018-06-20T08:18:28.017Z,24.91
2018-06-20T08:19:28.007Z,25.24
2018-06-20T08:20:27.999Z,25.42
2018-06-20T08:21:27.985Z,25.14
2018-06-20T08:22:27.975Z,24.91
2018-06-20T08:23:27.963Z,24.81
2018-06-20T08:24:27.957Z,24.71
2018-06-20T08:25:27.944Z,24.81
2018-06-20T08:26:27.940Z,24.87
2018-06-20T08:27:27.924Z,24.96
2018-06-20T08:28:27.915Z,24.91
2018-06-20T08:29:27.903Z,25.10
2018-06-20T08:30:27.897Z,25.20
2018-06-20T08:31:27.885Z,25.27
2018-06-20T08:32:27.873Z,25.46
2018-06-20T08:33:27.861Z,25.54
2018-06-20T08:34:27.852Z,25.58
2018-06-20T08:35:27.844Z,25.73
2018-06-20T08:36:27.834Z,25.90
2018-06-20T08:37:27.828Z,25.82
2018-06-20T08:38:27.813Z,25.73
2018-06-20T08:39:27.806Z,25.82
2018-06-20T08:40:27.796Z,25.88
2018-06-20T08:41:27.785Z,25.79
2018-06-20T08:42:27.838Z,25.90
2018-06-20T08:43:27.769Z,26.02
2018-06-20T08:44:27.760Z,25.92
2018-06-20T08:45:27.750Z,25.97
2018-06-20T08:46:27.740Z,25.94
2018-06-20T08:47:27.731Z,25.82
2018-06-20T08:48:27.726Z,25.88
2018-06-20T08:49:27.714Z,25.85
2018-06-20T08:50:27.713Z,26.02
2018-06-20T08:51:27.705Z,26.02
2018-06-20T08:52:27.690Z,26.20
2018-06-20T08:53:27.679Z,26.30
2018-06-20T08:54:27.669Z,26.17
2018-06-20T08:55:27.672Z,26.29
2018-06-20T08:56:27.654Z,26.30
2018-06-20T08:57:27.643Z,26.50
2018-06-20T08:58:27.635Z,26.69
2018-06-20T08:59:27.628Z,26.75
2018-06-20T09:00:27.626Z,26.85
2018-06-20T09:01:27.609Z,26.95
2018-06-20T09:02:27.601Z,27.03
2018-06-20T09:03:27.593Z,27.09
2018-06-20T09:04:27.596Z,27.07
2018-06-20T09:05:27.578Z,26.89
2018-06-20T09:06:27.571Z,26.92
2018-06-20T09:07:27.561Z,26.97
2018-06-20T09:08:27.558Z,27.04
2018-06-20T09:09:27.545Z,27.09
2018-06-20T09:10:27.540Z,26.99
2018-06-20T09:11:27.539Z,26.95
2018-06-20T09:12:27.523Z,26.99
2018-06-20T09:13:27.523Z,26.89
2018-06-20T09:14:27.570Z,26.89
2018-06-20T09:15:27.499Z,26.87
2018-06-20T09:16:27.491Z,26.88
2018-06-20T09:17:27.488Z,26.87
2018-06-20T09:18:27.476Z,26.87
2018-06-20T09:19:27.465Z,26.94
2018-06-20T09:20:27.473Z,27.02
2018-06-20T09:21:27.453Z,27.18
2018-06-20T09:22:27.442Z,27.27
2018-06-20T09:23:27.438Z,27.21
2018-06-20T09:24:27.429Z,27.13
2018-06-20T09:25:27.427Z,27.21
2018-06-20T09:26:27.412Z,27.39
2018-06-20T09:27:27.456Z,27.43
2018-06-20T09:28:27.400Z,27.59
2018-06-20T09:29:27.392Z,27.69
2018-06-20T09:30:27.383Z,27.75
2018-06-20T09:31:27.376Z,28.00
2018-06-20T09:32:27.371Z,28.21
2018-06-20T09:33:27.361Z,28.27
2018-06-20T09:34:27.356Z,28.22
2018-06-20T09:35:27.347Z,28.36
2018-06-20T09:36:27.339Z,28.31
2018-06-20T09:37:27.336Z,28.19
2018-06-20T09:38:27.330Z,28.24
2018-06-20T09:39:27.320Z,28.19
2018-06-20T09:40:27.324Z,27.94
2018-06-20T09:41:27.305Z,27.92
2018-06-20T09:42:27.299Z,27.90
2018-06-20T09:43:27.290Z,27.92
2018-06-20T09:44:27.284Z,27.94
2018-06-20T09:45:27.279Z,28.07
2018-06-20T09:46:27.276Z,27.99
2018-06-20T09:47:27.271Z,27.94
2018-06-20T09:48:27.257Z,27.90
2018-06-20T09:49:27.251Z,27.85
2018-06-20T09:50:27.244Z,27.87
2018-06-20T09:51:27.238Z,27.93
2018-06-20T09:52:27.235Z,27.93
2018-06-20T09:53:27.223Z,27.84
2018-06-20T09:54:27.217Z,27.75
2018-06-20T09:55:27.212Z,27.59
2018-06-20T09:56:27.204Z,27.62
2018-06-20T09:57:27.193Z,27.60
2018-06-20T09:58:27.188Z,27.43
2018-06-20T09:59:27.179Z,27.43
2018-06-20T10:00:27.174Z,27.37
2018-06-20T10:01:27.188Z,27.39
2018-06-20T10:02:27.159Z,27.36
2018-06-20T10:03:27.149Z,27.28
2018-06-20T10:04:27.143Z,27.18
2018-06-20T10:05:27.137Z,27.10
2018-06-20T10:06:27.170Z,27.12
2018-06-20T10:07:27.121Z,27.25
2018-06-20T10:08:27.114Z,27.31
2018-06-20T10:09:27.106Z,27.32
2018-06-20T10:10:27.099Z,27.39
2018-06-20T10:11:27.090Z,27.40
2018-06-20T10:12:27.084Z,27.44
2018-06-20T10:13:27.079Z,27.37
2018-06-20T10:14:27.068Z,27.36
2018-06-20T10:15:27.061Z,27.37
2018-06-20T10:16:27.056Z,27.40
2018-06-20T10:17:27.044Z,27.47
2018-06-20T10:18:27.036Z,27.43
2018-06-20T10:19:27.029Z,27.51
2018-06-20T10:20:27.023Z,27.54
2018-06-20T10:21:27.074Z,27.47
2018-06-20T10:22:27.009Z,27.40
2018-06-20T10:23:27.000Z,27.37
2018-06-20T10:24:26.992Z,27.44
2018-06-20T10:25:26.982Z,27.36
2018-06-20T10:26:26.976Z,27.37
2018-06-20T10:27:26.967Z,27.27
2018-06-20T10:28:26.970Z,27.39
2018-06-20T10:29:26.951Z,27.40
2018-06-20T10:30:26.944Z,27.54
2018-06-20T10:31:26.939Z,27.62
2018-06-20T10:32:26.933Z,27.72
2018-06-20T10:33:26.921Z,27.79
2018-06-20T10:34:26.917Z,27.85
2018-06-20T10:35:26.912Z,27.75
2018-06-20T10:36:26.896Z,27.67
2018-06-20T10:37:26.888Z,27.75
2018-06-20T10:38:26.882Z,27.77
2018-06-20T10:39:26.882Z,27.60
2018-06-20T10:40:26.867Z,27.75
2018-06-20T10:41:26.859Z,27.75
2018-06-20T10:42:26.851Z,27.74
2018-06-20T10:43:26.842Z,27.77
2018-06-20T10:44:26.835Z,27.74
2018-06-20T10:45:26.826Z,27.82
2018-06-20T10:46:26.822Z,27.94
2018-06-20T10:47:26.815Z,28.04
2018-06-20T10:48:26.805Z,28.00
2018-06-20T10:49:26.851Z,28.03
2018-06-20T10:50:26.788Z,27.99
2018-06-20T10:51:26.780Z,28.03
2018-06-20T10:52:26.772Z,28.09
2018-06-20T10:53:26.765Z,27.94
2018-06-20T10:54:26.821Z,28.00
2018-06-20T10:55:26.750Z,28.03
2018-06-20T10:56:26.745Z,28.07
2018-06-20T10:57:26.732Z,28.06
2018-06-20T10:58:26.724Z,28.09
2018-06-20T10:59:26.717Z,28.07
2018-06-20T11:00:26.761Z,28.09
2018-06-20T11:01:26.702Z,28.06
2018-06-20T11:02:26.694Z,28.06
2018-06-20T11:03:26.736Z,27.88
2018-06-20T11:04:26.679Z,27.81
2018-06-20T11:05:26.672Z,27.77
2018-06-20T11:06:26.667Z,27.59
2018-06-20T11:07:26.654Z,27.37
2018-06-20T11:08:26.647Z,27.37
2018-06-20T11:09:26.641Z,27.37
2018-06-20T11:10:26.631Z,27.25
2018-06-20T11:11:26.624Z,27.18
2018-06-20T11:12:26.614Z,27.22
2018-06-20T11:13:26.612Z,27.19
2018-06-20T11:14:26.600Z,27.18
2018-06-20T11:15:26.616Z,27.17
2018-06-20T11:16:26.583Z,27.07
2018-06-20T11:17:26.576Z,27.13
2018-06-20T11:18:26.565Z,27.02
2018-06-20T11:19:26.559Z,27.17
2018-06-20T11:20:26.555Z,27.18
2018-06-20T11:21:26.544Z,27.12
2018-06-20T11:22:26.540Z,27.24
2018-06-20T11:23:26.528Z,27.17
2018-06-20T11:24:26.518Z,27.14
2018-06-20T11:25:26.508Z,27.21
2018-06-20T11:26:26.502Z,27.22
2018-06-20T11:27:26.493Z,27.18
2018-06-20T11:28:26.485Z,27.32
2018-06-20T11:29:26.476Z,27.29
2018-06-20T11:30:26.467Z,27.28
2018-06-20T11:31:26.459Z,27.17
2018-06-20T11:32:26.451Z,27.13
2018-06-20T11:33:26.443Z,27.17
2018-06-20T11:34:26.433Z,27.22
2018-06-20T11:35:26.424Z,27.24
2018-06-20T11:36:26.417Z,27.28
2018-06-20T11:37:26.407Z,27.22
2018-06-20T11:38:26.399Z,27.13
2018-06-20T11:39:26.407Z,27.18
2018-06-20T11:40:26.384Z,27.10
2018-06-20T11:41:26.374Z,27.12
2018-06-20T11:42:26.368Z,27.18
2018-06-20T11:43:26.359Z,27.13
2018-06-20T11:44:26.351Z,27.17
2018-06-20T11:45:26.340Z,27.28
2018-06-20T11:46:26.332Z,27.31
2018-06-20T11:47:26.327Z,27.25
2018-06-20T11:48:26.319Z,27.39
2018-06-20T11:49:26.306Z,27.44
2018-06-20T11:50:26.297Z,27.39
2018-06-20T11:51:26.289Z,27.32
2018-06-20T11:52:26.281Z,27.43
2018-06-20T11:53:26.276Z,27.46
2018-06-20T11:54:26.285Z,27.32
2018-06-20T11:55:26.257Z,27.28
2018-06-20T11:56:26.249Z,27.32
2018-06-20T11:57:26.239Z,27.39
2018-06-20T11:58:26.235Z,27.37
2018-06-20T11:59:26.222Z,27.37
2018-06-20T12:00:26.217Z,27.39
2018-06-20T12:01:26.211Z,27.41
2018-06-20T12:02:26.198Z,27.40
2018-06-20T12:03:26.194Z,27.37
2018-06-20T12:04:26.184Z,27.46
2018-06-20T12:05:26.170Z,27.51
2018-06-20T12:06:26.177Z,27.54
2018-06-20T12:07:26.153Z,27.65
2018-06-20T12:08:26.147Z,27.67
2018-06-20T12:09:26.136Z,27.74
2018-06-20T12:10:26.130Z,27.75
2018-06-20T12:11:26.123Z,27.85
2018-06-20T12:12:26.111Z,27.75
2018-06-20T12:13:26.107Z,27.78
2018-06-20T12:14:26.098Z,27.66
2018-06-20T12:15:26.086Z,27.59
2018-06-20T12:16:26.083Z,27.78
2018-06-20T12:17:26.067Z,27.75
2018-06-20T12:18:26.062Z,27.77
2018-06-20T12:19:26.055Z,27.88
2018-06-20T12:20:26.044Z,27.88
2018-06-20T12:21:26.035Z,27.87
2018-06-20T12:22:26.027Z,28.02
2018-06-20T12:23:26.018Z,28.03
2018-06-20T12:24:26.014Z,28.03
2018-06-20T12:25:26.009Z,28.07
2018-06-20T12:26:25.992Z,28.24
2018-06-20T12:27:25.986Z,28.24
2018-06-20T12:28:25.979Z,28.11
2018-06-20T12:29:26.050Z,28.25
2018-06-20T12:30:25.959Z,28.25
2018-06-20T12:31:25.954Z,28.09
2018-06-20T12:32:25.945Z,28.00
2018-06-20T12:33:25.939Z,27.87
2018-06-20T12:34:25.932Z,27.87
2018-06-20T12:35:25.919Z,27.90
2018-06-20T12:36:25.912Z,27.93
2018-06-20T12:37:25.901Z,27.90
2018-06-20T12:38:25.893Z,27.82
2018-06-20T12:39:25.893Z,27.82
2018-06-20T12:40:25.878Z,27.84
2018-06-20T12:41:25.869Z,27.85
2018-06-20T12:42:25.860Z,27.88
2018-06-20T12:43:25.850Z,27.84
2018-06-20T12:44:25.843Z,27.75
2018-06-20T12:45:25.834Z,27.77
2018-06-20T12:46:25.832Z,27.84
2018-06-20T12:47:25.818Z,27.78
2018-06-20T12:48:25.812Z,27.84
2018-06-20T12:49:25.802Z,27.90
2018-06-20T12:50:25.810Z,27.94
2018-06-20T12:51:25.786Z,28.02
2018-06-20T12:52:25.789Z,28.07
2018-06-20T12:53:25.771Z,28.04
2018-06-20T12:54:25.763Z,27.97